Time;durP1;ratioP1;P1;durP2;ratioP2;P2;SDS_P1;SDS_P2;PMS_P1;PMS_P2;Temp;Humidity;BMP_temperature;BMP_pressure;BME280_temperature;BME280_humidity;BME280_pressure;Samples;Min_cycle;Max_cycle;Signal;HPM_P1;HPM_P2
2022/01/05 00:01:59;;;;;;;23.00;14.00;;;;;;;5.51;89.87;94355.25;5114075;28;20450;-80
2022/01/05 00:04:26;;;;;;;19.93;14.17;;;;;;;5.54;90.20;94344.59;5114566;28;20510;-80
2022/01/05 00:06:53;;;;;;;20.23;13.80;;;;;;;5.58;90.27;94353.84;5113689;28;20437;-79
2022/01/05 00:09:22;;;;;;;21.07;13.60;;;;;;;5.65;89.31;94355.97;5114434;28;20437;-79
2022/01/05 00:11:49;;;;;;;22.90;13.40;;;;;;;5.67;88.88;94347.09;5113923;28;20451;-79
2022/01/05 00:14:18;;;;;;;28.23;14.03;;;;;;;5.65;89.15;94345.56;5114048;28;20802;-79
2022/01/05 00:16:45;;;;;;;21.53;13.00;;;;;;;5.65;88.89;94343.78;5113703;28;20444;-79
2022/01/05 00:19:11;;;;;;;19.53;13.13;;;;;;;5.65;88.70;94342.97;5060902;28;20480;-79
2022/01/05 00:21:40;;;;;;;21.43;12.10;;;;;;;5.69;88.79;94345.22;5114000;28;20451;-79
2022/01/05 00:24:08;;;;;;;18.90;13.30;;;;;;;5.72;87.60;94349.38;5114947;28;20444;-80
2022/01/05 00:26:35;;;;;;;23.63;15.50;;;;;;;5.66;88.54;94347.22;5114215;28;20439;-80
2022/01/05 00:29:03;;;;;;;20.80;13.73;;;;;;;5.58;88.13;94359.03;5113929;28;20450;-79
2022/01/05 00:31:31;;;;;;;24.93;15.57;;;;;;;5.48;88.54;94345.03;5113895;28;20926;-79
2022/01/05 00:33:58;;;;;;;19.73;13.77;;;;;;;5.54;89.22;94347.19;5060741;28;20448;-79
2022/01/05 00:36:25;;;;;;;18.77;14.50;;;;;;;5.53;88.25;94349.91;5113876;28;20829;-80
2022/01/05 00:38:52;;;;;;;17.53;13.17;;;;;;;5.47;88.67;94345.97;5113539;28;20835;-80
2022/01/05 00:41:19;;;;;;;21.43;13.50;;;;;;;5.50;89.16;94348.38;5114010;28;20449;-79
2022/01/05 00:43:46;;;;;;;25.17;14.17;;;;;;;5.44;88.14;94338.41;5061251;28;20440;-79
2022/01/05 00:46:13;;;;;;;19.53;12.40;;;;;;;5.41;88.81;94336.03;5114119;28;20447;-79
2022/01/05 00:48:41;;;;;;;16.73;12.90;;;;;;;5.45;89.21;94347.84;5113861;28;20801;-79
2022/01/05 00:51:09;;;;;;;24.23;13.23;;;;;;;5.43;88.98;94354.94;5113852;28;20445;-80
2022/01/05 00:53:37;;;;;;;19.20;12.70;;;;;;;5.34;89.19;94349.59;5113214;28;20440;-80
2022/01/05 00:56:05;;;;;;;22.13;13.03;;;;;;;5.34;89.49;94342.63;5113793;28;20816;-79
2022/01/05 00:58:32;;;;;;;19.20;13.27;;;;;;;5.35;89.65;94354.69;5113205;28;20488;-79
2022/01/05 01:00:59;;;;;;;26.07;15.37;;;;;;;5.32;90.18;94349.72;5113491;28;20874;-79
2022/01/05 01:03:28;;;;;;;24.07;14.27;;;;;;;5.35;89.93;94340.84;5113047;28;20453;-80
2022/01/05 01:05:58;;;;;;;19.63;13.73;;;;;;;5.44;90.11;94351.41;5061806;28;20444;-80
2022/01/05 01:08:25;;;;;;;19.63;12.90;;;;;;;5.43;89.21;94344.53;5114458;28;20485;-79
2022/01/05 01:10:52;;;;;;;20.70;12.40;;;;;;;5.47;89.75;94332.97;5113122;28;20446;-79
2022/01/05 01:13:20;;;;;;;18.23;12.40;;;;;;;5.47;89.02;94324.31;5113395;28;20459;-80
2022/01/05 01:15:48;;;;;;;16.70;12.07;;;;;;;5.43;89.48;94318.53;5112933;28;20437;-79
2022/01/05 01:18:15;;;;;;;25.30;12.53;;;;;;;5.43;89.23;94322.91;5113066;28;20447;-79
2022/01/05 01:20:42;;;;;;;17.33;12.07;;;;;;;5.45;88.78;94327.03;5113650;28;20448;-79
2022/01/05 01:23:11;;;;;;;25.33;12.00;;;;;;;5.49;89.50;94330.25;5112809;28;20805;-79
2022/01/05 01:25:38;;;;;;;17.50;11.83;;;;;;;5.53;88.43;94336.91;5112890;28;20436;-79
2022/01/05 01:28:06;;;;;;;17.83;11.53;;;;;;;5.50;89.21;94332.75;5112600;28;20922;-80
2022/01/05 01:30:34;;;;;;;19.23;14.33;;;;;;;5.44;88.74;94330.59;5116632;28;20442;-80
2022/01/05 01:33:01;;;;;;;17.80;12.10;;;;;;;5.37;89.85;94325.97;5117468;28;20439;-79
2022/01/05 01:35:28;;;;;;;17.67;12.77;;;;;;;5.37;89.89;94331.16;5117079;28;20909;-79
2022/01/05 01:37:55;;;;;;;18.63;12.83;;;;;;;5.38;89.37;94319.81;5064924;28;20800;-79
2022/01/05 01:40:23;;;;;;;21.73;12.73;;;;;;;5.34;90.04;94314.00;5116803;28;20483;-79
2022/01/05 01:42:50;;;;;;;18.60;14.00;;;;;;;5.39;89.68;94316.25;5064575;28;20479;-79
2022/01/05 01:45:17;;;;;;;16.40;11.80;;;;;;;5.44;89.42;94311.53;5116627;28;20447;-79
2022/01/05 01:47:45;;;;;;;17.87;12.30;;;;;;;5.44;89.33;94314.97;5117035;28;20455;-79
2022/01/05 01:50:13;;;;;;;18.33;12.40;;;;;;;5.47;89.95;94313.91;5117503;28;20805;-79
2022/01/05 01:52:42;;;;;;;23.13;13.40;;;;;;;5.44;88.75;94322.78;5116901;28;20449;-80
2022/01/05 01:55:11;;;;;;;21.00;14.30;;;;;;;5.46;89.90;94312.25;5116327;28;20439;-79
2022/01/05 01:57:42;;;;;;;21.97;13.80;;;;;;;5.46;89.35;94312.25;5117195;28;20431;-79
2022/01/05 02:00:12;;;;;;;20.37;14.17;;;;;;;5.44;89.85;94304.56;5117333;28;20482;-79
2022/01/05 02:02:40;;;;;;;16.93;12.77;;;;;;;5.47;89.94;94304.34;5116629;28;20891;-80
2022/01/05 02:05:08;;;;;;;24.27;13.03;;;;;;;5.51;89.90;94316.22;5116567;28;20444;-79
2022/01/05 02:07:35;;;;;;;22.70;13.40;;;;;;;5.50;89.26;94306.75;5116636;28;20440;-79
2022/01/05 02:10:02;;;;;;;19.30;12.67;;;;;;;5.52;89.02;94307.47;5116945;28;20448;-79
2022/01/05 02:12:29;;;;;;;19.43;14.40;;;;;;;5.50;89.60;94311.94;5116440;28;20428;-79
2022/01/05 02:14:58;;;;;;;21.70;13.40;;;;;;;5.48;89.40;94312.97;5117016;28;20440;-79
2022/01/05 02:17:41;;;;;;;23.53;13.53;;;;;;;5.46;90.14;94307.06;5116104;28;20455;-80
2022/01/05 02:20:13;;;;;;;19.20;12.97;;;;;;;5.43;89.76;94313.31;5116323;28;20807;-79
2022/01/05 02:22:42;;;;;;;16.70;11.50;;;;;;;5.43;90.14;94302.91;5063954;28;20437;-78
2022/01/05 02:25:11;;;;;;;21.53;13.53;;;;;;;5.44;89.52;94288.97;5116366;28;20531;-79
2022/01/05 02:27:40;;;;;;;21.13;11.43;;;;;;;5.39;89.52;94283.28;5116108;28;20532;-79
2022/01/05 02:30:12;;;;;;;18.27;12.00;;;;;;;5.43;90.03;94286.47;5116192;28;20485;-79
2022/01/05 02:32:41;;;;;;;22.00;13.27;;;;;;;5.45;89.93;94287.19;5065394;28;20447;-80
2022/01/05 02:35:12;;;;;;;17.03;11.63;;;;;;;5.44;89.75;94288.97;5116667;28;20443;-79
2022/01/05 02:37:42;;;;;;;22.30;14.17;;;;;;;5.42;89.76;94277.84;5063670;28;20988;-80
2022/01/05 02:40:11;;;;;;;19.50;13.20;;;;;;;5.39;89.25;94283.28;5115663;28;20479;-79
2022/01/05 02:42:38;;;;;;;19.27;12.30;;;;;;;5.38;90.19;94283.38;5115211;28;20529;-79
2022/01/05 02:45:06;;;;;;;21.27;13.43;;;;;;;5.40;89.40;94276.28;5063277;28;20462;-80
2022/01/05 02:47:33;;;;;;;18.87;13.30;;;;;;;5.41;89.98;94280.56;5116330;28;20440;-80
2022/01/05 02:50:01;;;;;;;22.13;13.03;;;;;;;5.37;89.47;94274.75;5115778;28;20448;-80
2022/01/05 02:52:28;;;;;;;29.43;13.90;;;;;;;5.34;90.40;94271.56;5115721;28;20448;-79
2022/01/05 02:54:56;;;;;;;19.20;12.67;;;;;;;5.38;89.99;94273.81;5115261;28;20443;-79
2022/01/05 02:57:23;;;;;;;17.37;12.00;;;;;;;5.33;90.16;94267.31;5115639;28;20456;-79
2022/01/05 02:59:50;;;;;;;17.37;11.63;;;;;;;5.34;91.11;94267.19;5114974;28;20485;-79
2022/01/05 03:02:17;;;;;;;20.83;12.67;;;;;;;5.36;90.22;94260.09;5114840;28;20452;-80
2022/01/05 03:04:44;;;;;;;14.03;11.50;;;;;;;5.33;90.60;94257.72;5115434;28;20441;-79
2022/01/05 03:07:11;;;;;;;17.30;12.23;;;;;;;5.37;90.34;94263.53;5115042;28;20444;-79
2022/01/05 03:09:38;;;;;;;22.80;13.60;;;;;;;5.33;89.95;94262.94;5115832;28;20447;-79
2022/01/05 03:12:07;;;;;;;24.87;15.43;;;;;;;5.28;90.89;94267.66;5115099;28;20462;-79
2022/01/05 03:14:34;;;;;;;24.90;14.70;;;;;;;5.29;90.07;94264.09;5014442;28;20451;-79
2022/01/05 03:17:01;;;;;;;26.40;14.43;;;;;;;5.31;90.62;94257.00;5062995;28;20444;-79
2022/01/05 03:19:28;;;;;;;17.07;11.77;;;;;;;5.35;90.58;94263.63;5062438;28;20481;-79
2022/01/05 03:21:55;;;;;;;21.17;13.80;;;;;;;5.36;90.29;94261.88;5114504;28;20926;-79
2022/01/05 03:24:22;;;;;;;17.13;13.00;;;;;;;5.36;89.85;94262.69;5115022;28;20926;-79
2022/01/05 03:26:49;;;;;;;20.83;11.80;;;;;;;5.37;89.52;94264.34;5114988;28;20523;-79
2022/01/05 03:29:17;;;;;;;18.17;13.00;;;;;;;5.38;90.30;94260.81;5115399;28;20451;-79
2022/01/05 03:31:44;;;;;;;19.07;13.70;;;;;;;5.41;89.06;94262.34;5114414;28;20456;-79
2022/01/05 03:34:17;;;;;;;14.80;10.30;;;;;;;5.36;89.60;94265.28;5114776;28;20420;-79
2022/01/05 03:36:44;;;;;;;14.27;11.33;;;;;;;5.40;89.00;94260.69;5115381;28;20429;-79
2022/01/05 03:39:11;;;;;;;19.63;12.23;;;;;;;5.20;88.69;94265.63;5115607;28;20494;-80
2022/01/05 03:41:37;;;;;;;20.43;13.30;;;;;;;5.17;88.32;94258.03;5114682;28;20440;-79
2022/01/05 03:44:05;;;;;;;20.20;12.70;;;;;;;5.20;88.12;94267.34;5114772;28;20444;-79
2022/01/05 03:46:33;;;;;;;19.80;13.37;;;;;;;5.20;88.20;94267.34;5114153;28;20449;-79
2022/01/05 03:49:01;;;;;;;19.17;13.50;;;;;;;5.16;88.49;94269.38;5114796;28;20458;-79
2022/01/05 03:51:28;;;;;;;29.77;13.47;;;;;;;5.10;87.47;94289.78;5114578;28;20520;-79
2022/01/05 03:53:55;;;;;;;20.40;13.27;;;;;;;5.04;88.38;94259.88;5113380;28;20805;-79
2022/01/05 03:56:22;;;;;;;19.73;13.97;;;;;;;4.95;88.21;94274.38;5114166;28;20483;-79
2022/01/05 03:58:49;;;;;;;22.00;13.37;;;;;;;4.94;88.30;94274.50;5114118;28;20785;-79
2022/01/05 04:01:16;;;;;;;19.50;13.50;;;;;;;4.92;88.35;94271.19;5114551;28;20485;-79
2022/01/05 04:03:44;;;;;;;18.63;13.30;;;;;;;4.94;88.90;94277.94;5114062;28;20447;-79
2022/01/05 04:06:11;;;;;;;19.93;12.80;;;;;;;4.90;88.39;94253.06;5113850;28;20455;-79
2022/01/05 04:08:38;;;;;;;17.07;12.63;;;;;;;4.89;89.48;94264.41;5114963;28;20444;-79
2022/01/05 04:11:05;;;;;;;19.47;13.33;;;;;;;4.84;89.78;94248.31;5114469;28;20440;-79
2022/01/05 04:13:32;;;;;;;19.50;12.90;;;;;;;4.89;90.43;94255.78;5113831;28;20443;-79
2022/01/05 04:16:00;;;;;;;14.70;11.40;;;;;;;4.85;90.69;94249.97;5113695;28;20448;-80
2022/01/05 04:18:27;;;;;;;16.33;12.07;;;;;;;4.89;90.77;94242.78;5062517;28;20955;-80
2022/01/05 04:20:55;;;;;;;17.37;11.80;;;;;;;4.87;90.67;94234.28;5114189;28;20502;-79
2022/01/05 04:23:22;;;;;;;17.83;11.90;;;;;;;4.86;90.96;94248.22;5114395;28;20442;-79
2022/01/05 04:25:49;;;;;;;12.87;10.87;;;;;;;4.85;91.48;94241.34;5113905;28;20434;-79
2022/01/05 04:28:16;;;;;;;15.43;9.97;;;;;;;4.87;91.59;94240.28;5061643;28;20443;-79
2022/01/05 04:30:43;;;;;;;14.23;9.73;;;;;;;4.89;92.42;94225.41;5115018;28;20453;-79
2022/01/05 04:33:11;;;;;;;15.33;11.37;;;;;;;4.88;91.93;94221.16;5113842;28;20451;-79
2022/01/05 04:35:38;;;;;;;17.67;11.27;;;;;;;4.91;91.75;94222.69;5113565;28;20443;-80
2022/01/05 04:38:06;;;;;;;20.33;12.10;;;;;;;4.89;91.69;94225.41;5113134;28;20458;-80
2022/01/05 04:40:33;;;;;;;16.40;11.70;;;;;;;4.95;92.58;94230.19;5114494;28;20985;-79
2022/01/05 04:43:00;;;;;;;21.73;11.73;;;;;;;4.96;91.19;94242.25;5113828;28;20439;-79
2022/01/05 04:45:27;;;;;;;15.80;12.30;;;;;;;4.94;91.64;94236.34;5114852;28;20449;-79
2022/01/05 04:47:54;;;;;;;21.53;11.57;;;;;;;4.98;91.97;94240.38;5113306;28;20934;-79
2022/01/05 04:50:21;;;;;;;16.43;11.27;;;;;;;4.98;91.51;94237.75;5113758;28;20816;-79
2022/01/05 04:52:48;;;;;;;16.57;11.70;;;;;;;5.04;91.18;94238.25;5113469;28;20433;-79
2022/01/05 04:55:16;;;;;;;18.13;11.47;;;;;;;5.04;90.85;94243.44;5113312;28;20475;-79
2022/01/05 04:57:43;;;;;;;15.73;10.57;;;;;;;5.05;91.57;94248.53;5114157;28;20794;-79
2022/01/05 05:00:10;;;;;;;17.20;13.03;;;;;;;5.04;91.54;94246.88;5119873;28;20864;-80
2022/01/05 05:02:37;;;;;;;15.80;11.20;;;;;;;5.03;91.26;94239.19;5119845;28;20445;-79
2022/01/05 05:05:05;;;;;;;20.60;11.80;;;;;;;5.07;90.07;94251.03;5118796;28;20798;-79
2022/01/05 05:07:32;;;;;;;17.90;12.07;;;;;;;5.00;91.37;94253.25;5068389;28;20442;-78
2022/01/05 05:09:59;;;;;;;16.87;11.40;;;;;;;5.03;91.24;94258.22;5121782;28;20453;-78
2022/01/05 05:12:27;;;;;;;14.20;10.70;;;;;;;4.98;91.17;94255.97;5122473;28;20447;-79
2022/01/05 05:14:54;;;;;;;14.77;10.67;;;;;;;5.00;91.65;94268.84;5119649;28;20440;-79
2022/01/05 05:17:21;;;;;;;21.30;11.83;;;;;;;4.93;91.76;94272.84;5120673;28;20434;-78
2022/01/05 05:19:48;;;;;;;17.00;12.20;;;;;;;4.93;91.32;94268.47;5119624;28;20483;-79
2022/01/05 05:22:14;;;;;;;15.60;11.27;;;;;;;4.94;91.23;94275.31;5119439;28;20450;-79
2022/01/05 05:24:41;;;;;;;27.37;12.23;;;;;;;4.98;91.24;94279.34;5120642;28;20443;-79
2022/01/05 05:27:09;;;;;;;16.63;11.03;;;;;;;4.98;90.49;94281.97;5119878;28;20529;-79
2022/01/05 05:29:37;;;;;;;15.07;11.97;;;;;;;4.97;91.20;94282.91;5123594;28;20447;-79
2022/01/05 05:32:05;;;;;;;17.30;12.00;;;;;;;5.01;91.02;94283.50;5122021;28;20451;-79
2022/01/05 05:34:31;;;;;;;15.20;11.50;;;;;;;4.98;90.14;94273.34;5126943;28;20443;-78
2022/01/05 05:37:00;;;;;;;21.70;13.90;;;;;;;5.03;90.75;94284.22;5126616;28;20443;-80
2022/01/05 05:39:27;;;;;;;18.07;12.27;;;;;;;5.03;90.23;94283.38;5128478;28;20473;-78
2022/01/05 05:41:53;;;;;;;20.70;13.23;;;;;;;5.02;89.84;94299.94;5122596;28;20442;-78
2022/01/05 05:44:20;;;;;;;26.17;18.00;;;;;;;5.03;91.00;94299.00;5119443;28;20450;-78
2022/01/05 05:46:49;;;;;;;32.63;21.23;;;;;;;4.92;90.22;94291.97;5119685;28;20450;-78
2022/01/05 05:49:16;;;;;;;25.60;18.80;;;;;;;4.95;90.42;94297.78;5120440;28;20443;-78
2022/01/05 05:51:42;;;;;;;38.70;25.37;;;;;;;4.93;90.38;94298.84;5119595;28;20446;-78
2022/01/05 05:54:09;;;;;;;26.10;19.60;;;;;;;4.90;90.85;94288.63;5121983;28;20447;-79
2022/01/05 05:56:36;;;;;;;25.07;17.10;;;;;;;4.91;90.35;94314.50;5120333;28;20824;-78
2022/01/05 05:59:03;;;;;;;20.43;14.57;;;;;;;4.91;89.99;94295.50;5119659;28;20443;-79
2022/01/05 06:01:30;;;;;;;24.43;17.47;;;;;;;4.80;88.63;94290.25;5119878;28;20478;-79
2022/01/05 06:03:58;;;;;;;23.30;16.83;;;;;;;4.76;89.13;94312.19;5069787;28;20934;-79
2022/01/05 06:06:25;;;;;;;32.30;19.20;;;;;;;4.78;89.23;94302.53;5119855;28;20438;-81
2022/01/05 06:08:52;;;;;;;64.33;35.63;;;;;;;4.75;89.02;94302.75;5122014;28;20454;-80
2022/01/05 06:11:19;;;;;;;120.77;54.20;;;;;;;4.73;88.58;94292.47;5120401;28;20450;-79
2022/01/05 06:13:46;;;;;;;75.67;42.97;;;;;;;4.73;89.25;94296.84;5120304;28;20454;-79
2022/01/05 06:16:13;;;;;;;86.37;43.33;;;;;;;4.75;88.33;94302.75;5118707;28;20443;-79
2022/01/05 06:18:40;;;;;;;85.03;41.70;;;;;;;4.62;88.78;94294.97;5119067;28;20436;-79
2022/01/05 06:21:08;;;;;;;61.17;34.40;;;;;;;4.65;90.35;94302.59;5119986;28;20480;-80
2022/01/05 06:23:35;;;;;;;42.90;25.67;;;;;;;4.71;90.04;94307.34;5117258;28;20454;-78
2022/01/05 06:26:02;;;;;;;43.30;24.57;;;;;;;4.74;90.28;94309.72;5116538;28;20431;-79
2022/01/05 06:28:29;;;;;;;31.90;20.80;;;;;;;4.78;89.66;94326.75;5118618;28;20437;-79
2022/01/05 06:30:56;;;;;;;33.13;19.20;;;;;;;4.79;90.67;94320.59;5116804;28;20961;-79
2022/01/05 06:33:23;;;;;;;25.00;15.70;;;;;;;4.82;90.77;94315.19;5117154;28;20921;-78
2022/01/05 06:35:50;;;;;;;19.63;16.13;;;;;;;4.85;91.12;94317.56;5117307;28;20448;-79
2022/01/05 06:38:18;;;;;;;21.27;16.20;;;;;;;4.97;90.53;94326.25;5117487;28;20449;-80
2022/01/05 06:40:45;;;;;;;35.57;16.43;;;;;;;4.89;91.28;94313.78;5116505;28;20475;-80
2022/01/05 06:43:12;;;;;;;22.13;15.10;;;;;;;5.00;91.49;94325.22;5116830;28;20448;-81
2022/01/05 06:45:39;;;;;;;24.50;14.33;;;;;;;5.03;91.04;94297.22;5065310;28;20448;-79
2022/01/05 06:48:06;;;;;;;22.70;15.20;;;;;;;4.98;90.55;94292.34;5116335;28;20525;-80
2022/01/05 06:50:33;;;;;;;19.97;13.00;;;;;;;5.09;90.87;94311.53;5116372;28;20454;-80
2022/01/05 06:52:59;;;;;;;20.70;15.20;;;;;;;5.00;90.26;94326.03;5116415;28;20446;-82
2022/01/05 06:55:28;;;;;;;34.87;20.90;;;;;;;5.01;90.93;94326.88;5117192;28;20554;-80
2022/01/05 06:57:55;;;;;;;34.23;22.30;;;;;;;5.16;91.72;94328.34;5117197;28;20462;-81
2022/01/05 07:00:23;;;;;;;31.03;19.87;;;;;;;5.24;92.04;94315.63;5116641;28;20489;-81
2022/01/05 07:02:50;;;;;;;34.13;18.77;;;;;;;5.43;92.83;94313.31;5081528;28;20440;-80
2022/01/05 07:05:17;;;;;;;27.97;19.73;;;;;;;5.63;93.55;94308.41;5080828;28;20429;-80
2022/01/05 07:07:44;;;;;;;26.33;17.40;;;;;;;5.79;93.88;94312.38;5116906;28;20448;-80
2022/01/05 07:10:12;;;;;;;28.30;18.23;;;;;;;5.93;96.36;94306.13;5116335;28;20528;-80
2022/01/05 07:12:40;;;;;;;36.07;25.07;;;;;;;5.84;91.11;94302.44;5117016;28;20807;-79
2022/01/05 07:15:08;;;;;;;40.50;23.87;;;;;;;5.75;92.81;94307.47;5116392;28;20448;-79
2022/01/05 07:17:35;;;;;;;57.63;29.80;;;;;;;5.84;92.52;94314.63;5064372;28;20451;-79
2022/01/05 07:20:03;;;;;;;42.53;27.93;;;;;;;5.79;90.01;94319.34;5116115;28;20436;-79
2022/01/05 07:22:30;;;;;;;47.67;31.50;;;;;;;5.92;89.92;94306.25;5115704;28;20446;-79
2022/01/05 07:24:57;;;;;;;46.43;26.87;;;;;;;5.98;88.75;94311.00;5116074;28;20507;-79
2022/01/05 07:27:24;;;;;;;43.47;28.60;;;;;;;6.04;88.67;94321.75;5116114;28;20442;-80
2022/01/05 07:29:53;;;;;;;38.83;24.63;;;;;;;6.06;87.05;94338.09;5116169;28;20837;-80
2022/01/05 07:32:20;;;;;;;49.63;24.93;;;;;;;6.12;87.96;94326.41;5115801;28;20450;-80
2022/01/05 07:34:46;;;;;;;43.13;24.10;;;;;;;6.14;88.21;94325.34;5115769;28;20453;-79
2022/01/05 07:37:13;;;;;;;53.17;28.23;;;;;;;6.21;87.54;94325.69;5079537;28;20443;-80
2022/01/05 07:39:40;;;;;;;64.87;36.23;;;;;;;6.05;87.09;94328.63;5114706;28;20437;-79
2022/01/05 07:42:08;;;;;;;88.30;48.50;;;;;;;5.71;88.72;94332.09;5114205;28;20483;-80
2022/01/05 07:44:35;;;;;;;107.53;57.83;;;;;;;5.92;87.58;94327.91;5115451;28;20451;-79
2022/01/05 07:47:04;;;;;;;114.73;57.47;;;;;;;5.94;88.80;94327.78;5115385;28;20440;-79
2022/01/05 07:49:31;;;;;;;101.33;54.23;;;;;;;6.01;88.41;94322.00;5062782;28;20445;-78
2022/01/05 07:51:58;;;;;;;81.90;44.10;;;;;;;6.06;88.87;94332.88;5062423;28;20480;-79
2022/01/05 07:54:25;;;;;;;60.50;33.70;;;;;;;6.09;88.22;94330.06;5114549;28;20911;-79
2022/01/05 07:56:52;;;;;;;60.93;36.87;;;;;;;5.90;88.49;94340.22;5115040;28;20965;-79
2022/01/05 07:59:19;;;;;;;62.60;38.10;;;;;;;5.97;88.50;94331.00;5114723;28;20448;-79
2022/01/05 08:01:46;;;;;;;41.37;29.50;;;;;;;6.00;88.70;94327.31;5114599;28;20510;-79
2022/01/05 08:04:15;;;;;;;37.77;24.73;;;;;;;6.03;89.07;94317.50;5114344;28;20445;-79
2022/01/05 08:06:42;;;;;;;31.33;22.73;;;;;;;6.05;89.00;94322.59;5114980;28;20950;-79
2022/01/05 08:09:10;;;;;;;34.07;22.60;;;;;;;6.21;89.47;94342.16;5114529;28;20455;-79
2022/01/05 08:11:36;;;;;;;35.20;24.03;;;;;;;6.35;89.75;94327.22;5115177;28;20444;-82
2022/01/05 08:14:04;;;;;;;33.33;23.10;;;;;;;6.40;88.76;94327.72;5062789;28;20456;-80
2022/01/05 08:16:31;;;;;;;28.80;21.03;;;;;;;6.55;88.87;94336.94;5114590;28;20449;-79
2022/01/05 08:18:58;;;;;;;38.07;25.20;;;;;;;6.66;87.44;94321.31;5114766;28;20565;-79
2022/01/05 08:21:26;;;;;;;37.23;22.63;;;;;;;6.71;87.97;94332.19;5114741;28;20461;-79
2022/01/05 08:23:53;;;;;;;54.17;33.33;;;;;;;6.79;87.57;94331.59;5114428;28;20433;-79
2022/01/05 08:26:20;;;;;;;56.57;36.33;;;;;;;6.86;86.34;94324.09;5114269;28;20452;-80
2022/01/05 08:28:47;;;;;;;58.77;40.23;;;;;;;7.01;86.26;94321.13;5112387;28;20823;-79
2022/01/05 08:31:14;;;;;;;51.13;34.43;;;;;;;7.14;85.73;94327.00;5113915;28;20437;-79
2022/01/05 08:33:41;;;;;;;86.63;58.53;;;;;;;7.26;85.14;94337.41;5114368;28;20446;-79
2022/01/05 08:36:08;;;;;;;64.97;42.47;;;;;;;7.38;85.43;94311.13;5114508;28;20463;-80
2022/01/05 08:38:37;;;;;;;40.47;29.20;;;;;;;7.49;84.71;94319.84;5113805;28;20449;-79
2022/01/05 08:41:04;;;;;;;38.00;27.27;;;;;;;7.68;88.82;94320.00;5114678;28;20475;-83
2022/01/05 08:43:33;;;;;;;28.47;21.27;;;;;;;7.80;87.68;94315.53;5113385;28;20431;-80
2022/01/05 08:46:00;;;;;;;35.00;23.60;;;;;;;7.79;83.15;94306.88;5113069;28;20932;-80
2022/01/05 08:48:27;;;;;;;32.67;22.53;;;;;;;7.85;82.50;94321.25;5061003;28;20512;-80
2022/01/05 08:50:54;;;;;;;40.17;24.87;;;;;;;8.02;82.19;94318.84;5079274;28;20439;-79
2022/01/05 08:53:22;;;;;;;34.87;24.87;;;;;;;8.17;81.53;94327.22;5114442;28;20947;-80
2022/01/05 08:55:51;;;;;;;38.40;22.47;;;;;;;8.27;80.60;94328.06;5114291;28;20466;-79
2022/01/05 08:58:20;;;;;;;28.47;21.20;;;;;;;8.32;79.78;94314.59;5114369;28;20515;-79
2022/01/05 09:00:48;;;;;;;27.03;18.93;;;;;;;8.31;79.12;94312.94;5114009;28;20439;-79
2022/01/05 09:03:15;;;;;;;33.90;22.40;;;;;;;8.41;79.02;94315.66;5113937;28;20940;-80
2022/01/05 09:05:43;;;;;;;36.63;21.77;;;;;;;8.45;79.33;94323.09;5061975;28;20445;-79
2022/01/05 09:08:10;;;;;;;30.67;20.50;;;;;;;8.42;78.67;94315.53;5113974;28;20442;-80
2022/01/05 09:10:38;;;;;;;27.60;19.30;;;;;;;8.45;79.25;94319.66;5114087;28;20473;-80
2022/01/05 09:13:09;;;;;;;29.30;15.90;;;;;;;8.44;79.13;94313.63;5114041;28;20468;-80
2022/01/05 09:15:36;;;;;;;20.90;15.40;;;;;;;8.47;78.37;94313.34;5062342;28;20457;-80
2022/01/05 09:18:03;;;;;;;21.77;16.67;;;;;;;8.44;78.28;94311.00;5113155;28;20435;-80
2022/01/05 09:20:32;;;;;;;21.17;16.27;;;;;;;8.46;79.03;94300.41;5077090;28;20500;-80
2022/01/05 09:23:00;;;;;;;19.73;15.13;;;;;;;8.37;77.97;94309.84;5112660;28;20479;-81
2022/01/05 09:25:27;;;;;;;27.57;18.23;;;;;;;8.49;78.28;94310.59;5112515;28;20445;-80
2022/01/05 09:27:54;;;;;;;39.10;22.07;;;;;;;8.55;78.08;94303.03;5113067;28;20478;-80
2022/01/05 09:30:25;;;;;;;35.40;18.50;;;;;;;8.66;77.82;94302.94;5112570;28;20868;-80
2022/01/05 09:32:52;;;;;;;27.40;17.07;;;;;;;8.76;77.74;94287.28;5077469;28;20434;-80
2022/01/05 09:35:22;;;;;;;36.10;17.90;;;;;;;8.81;77.36;94276.41;5112487;28;20979;-81
2022/01/05 09:38:07;;;;;;;25.47;16.67;;;;;;;8.92;76.81;94277.13;5112583;28;21008;-80
2022/01/05 09:43:19;;;;;;;26.93;18.97;;;;;;;9.07;76.72;94264.47;5112587;28;20426;-81
2022/01/05 09:45:58;;;;;;;24.40;18.67;;;;;;;9.22;76.62;94257.88;5112844;28;20454;-80
2022/01/05 09:48:38;;;;;;;25.87;17.37;;;;;;;9.34;76.99;94255.94;5112637;28;20447;-80
2022/01/05 09:51:12;;;;;;;26.13;15.03;;;;;;;9.49;76.98;94248.50;5113791;28;20530;-80
2022/01/05 09:53:39;;;;;;;19.10;15.40;;;;;;;9.55;76.39;94250.56;5116134;28;20519;-80
2022/01/05 09:56:07;;;;;;;29.00;15.60;;;;;;;9.54;75.62;94252.38;5116514;28;20475;-79
2022/01/05 09:58:35;;;;;;;16.60;12.27;;;;;;;9.56;75.52;94253.06;5115012;28;20448;-79
2022/01/05 10:01:05;;;;;;;14.67;12.67;;;;;;;9.48;75.49;94252.91;5116265;28;20442;-79
2022/01/05 10:03:32;;;;;;;15.30;11.60;;;;;;;9.69;75.39;94239.66;5117378;28;20447;-79
2022/01/05 10:06:00;;;;;;;17.37;11.57;;;;;;;9.63;75.33;94245.47;5117014;28;20439;-79
2022/01/05 10:08:27;;;;;;;16.70;10.60;;;;;;;9.76;74.69;94240.72;5117289;28;20446;-80
2022/01/05 10:10:54;;;;;;;21.90;13.93;;;;;;;9.69;74.43;94236.19;5117089;28;20781;-79
2022/01/05 10:13:21;;;;;;;16.50;11.67;;;;;;;9.83;73.39;94235.75;5116856;28;20936;-80
2022/01/05 10:15:48;;;;;;;19.53;10.67;;;;;;;9.91;72.60;94236.72;5117373;28;20445;-79
2022/01/05 10:18:18;;;;;;;17.47;10.00;;;;;;;9.87;71.76;94232.72;5117314;28;20426;-79
2022/01/05 10:21:01;;;;;;;15.77;10.67;;;;;;;9.97;71.65;94221.38;5116564;28;20450;-80
2022/01/05 10:23:36;;;;;;;13.17;9.27;;;;;;;10.02;72.38;94230.47;5116635;28;20443;-79
2022/01/05 10:26:20;;;;;;;20.43;10.53;;;;;;;10.14;72.23;94210.16;5116960;28;20455;-79
2022/01/05 10:28:47;;;;;;;12.77;9.67;;;;;;;10.09;72.15;94209.72;5116722;28;20446;-80
2022/01/05 10:31:15;;;;;;;18.07;12.87;;;;;;;10.11;72.74;94213.88;5080847;28;20439;-79
2022/01/05 10:33:43;;;;;;;20.50;11.20;;;;;;;10.17;72.15;94199.38;5116368;28;20439;-79
2022/01/05 10:36:11;;;;;;;10.17;8.83;;;;;;;10.27;71.90;94188.88;5116353;28;20797;-79
2022/01/05 10:38:38;;;;;;;20.40;9.80;;;;;;;10.34;71.18;94203.88;5116561;28;20794;-79
2022/01/05 10:41:17;;;;;;;15.43;10.40;;;;;;;10.39;71.56;94178.03;5116170;28;20940;-79
2022/01/05 10:44:09;;;;;;;21.57;9.83;;;;;;;10.37;71.53;94193.09;5116086;28;20447;-79
2022/01/05 10:46:37;;;;;;;15.07;10.33;;;;;;;10.41;69.71;94189.22;5116468;28;20512;-79
2022/01/05 10:49:06;;;;;;;17.40;10.43;;;;;;;10.50;69.00;94182.25;5116157;28;20433;-80
2022/01/05 10:51:34;;;;;;;10.67;9.00;;;;;;;10.55;70.50;94169.53;5116142;28;20453;-79
2022/01/05 10:54:12;;;;;;;15.30;9.93;;;;;;;10.51;69.79;94170.81;5116189;28;20435;-79
2022/01/05 10:56:39;;;;;;;15.07;10.40;;;;;;;10.61;69.66;94170.72;5116198;28;20463;-81
2022/01/05 10:59:06;;;;;;;15.93;10.43;;;;;;;10.64;70.87;94163.38;5116338;28;20463;-79
2022/01/05 11:01:33;;;;;;;12.83;8.90;;;;;;;10.71;70.17;94167.09;5115735;28;20483;-81
2022/01/05 11:04:14;;;;;;;15.23;10.70;;;;;;;10.62;69.44;94167.94;5116096;28;20625;-80
2022/01/05 11:06:54;;;;;;;13.60;9.43;;;;;;;10.71;69.00;94155.75;5116405;28;20451;-79
2022/01/05 11:09:21;;;;;;;21.30;12.00;;;;;;;10.80;74.10;94153.06;5114615;28;20834;-82
2022/01/05 11:11:50;;;;;;;20.30;10.57;;;;;;;10.96;70.29;94143.69;5115624;28;20448;-80
2022/01/05 11:14:18;;;;;;;16.93;10.10;;;;;;;11.06;69.11;94155.75;5116015;28;20886;-81
2022/01/05 11:16:47;;;;;;;12.10;9.20;;;;;;;11.18;68.85;94140.59;5116276;28;20446;-80
2022/01/05 11:19:16;;;;;;;21.80;8.90;;;;;;;11.24;68.18;94149.66;5115373;28;20443;-80
2022/01/05 11:22:01;;;;;;;16.37;9.80;;;;;;;11.21;68.46;94140.28;5114235;28;20490;-80
2022/01/05 11:24:29;;;;;;;18.60;9.87;;;;;;;10.98;68.49;94144.34;5114591;28;20455;-80
2022/01/05 11:26:57;;;;;;;10.80;8.33;;;;;;;11.14;68.56;94134.00;5062275;28;20438;-80
2022/01/05 11:29:25;;;;;;;12.40;8.60;;;;;;;11.11;67.71;94135.13;5114555;28;20449;-81
2022/01/05 11:31:54;;;;;;;13.57;9.47;;;;;;;11.08;68.33;94138.06;5114807;28;20446;-80